Startpagina
METAR-TAF:

METAR-TAF

Vliegvelden :

Kilimanjaro International Airport

Kilimanjaro, Tanzania

breedte: 03-25S, lengte: 037-04E, hoogte: 891 m

Actueel weer

Dit bericht is 10 uur en het 44 minuten geleden gemaakt, om 16:00 UTC
Weinig wind
Temperatuur 23°C
Vochtigheid 50%
Druk 1021 hPa
Zicht 10 km of meer
Weinig wolken op 3000 ft

METAR: HTKJ 231600Z 00000KT 9999 FEW030 23/12 Q1021 NOSIG

Tijdstip: 05:44 (02:44 UTC)

Verwachting

Dit bericht is 3 uur en het 44 minuten geleden gemaakt, om 23:00 UTC
Verwachting geldig van 24 om 00 UTC tot 24 om 24 UTC
Wind 5 kt uit het oosten
Zicht 10 km of meer
Gebroken wolken op 2200 ft

TAF: HTKJ 232300Z 2400/2424 09005KT 9999 BKN022

Waarnemingen en weersverwachtingen van meer dan 4000 vliegvelden (METAR en TAF).

De beschikbare stations zijn de gele en rode punten op de kaart.

Ga met uw muis naar het station om de naam te zien.

Klik dan om waarnemingen en weersverwachtingen te zien.

kaart wijzigen: klik op de groene knoppen met een zwart kruis om in te zoomen, op de groene knop met een streepje om uit te zoomen of op de groene pijlen voor aangrenzende kaarten.


METAR-TAF: